Time,TemperatureF,DewpointF,PressureIn,WindDirection,WindDirectionDegrees,WindSpeedMPH,WindSpeedGustMPH,Humidity,HourlyPrecipIn,Conditions,Clouds,dailyrainin,SoftwareType,DateUTC
2013-09-14 00:12:00,82.1,70.0,29.89,East,81,0.0,0.0,67,0.00,,,0.00,weatherlink.com 1.10,2013-09-14 05:12:00,
2013-09-14 00:28:00,81.3,70.0,29.88,East,81,0.0,0.0,68,0.00,,,0.00,weatherlink.com 1.10,2013-09-14 05:28:00,
2013-09-14 00:43:00,80.7,70.0,29.88,East,81,0.0,0.0,69,0.00,,,0.00,weatherlink.com 1.10,2013-09-14 05:43:00,
2013-09-14 00:58:00,80.1,70.0,29.89,East,81,0.0,0.0,71,0.00,,,0.00,weatherlink.com 1.10,2013-09-14 05:58:00,
2013-09-14 01:13:00,79.6,69.0,29.89,East,81,0.0,0.0,71,0.00,,,0.00,weatherlink.com 1.10,2013-09-14 06:13:00,
2013-09-14 01:28:00,79.4,69.0,29.89,East,81,0.0,0.0,71,0.00,,,0.00,weatherlink.com 1.10,2013-09-14 06:28:00,
2013-09-14 01:43:00,79.0,69.0,29.89,East,81,0.0,0.0,72,0.00,,,0.00,weatherlink.com 1.10,2013-09-14 06:43:00,
2013-09-14 01:58:00,78.7,69.0,29.89,East,81,0.0,0.0,72,0.00,,,0.00,weatherlink.com 1.10,2013-09-14 06:58:00,
2013-09-14 02:13:00,78.4,69.0,29.89,East,81,0.0,0.0,72,0.00,,,0.00,weatherlink.com 1.10,2013-09-14 07:13:00,
2013-09-14 02:28:00,78.2,69.0,29.89,East,81,0.0,0.0,73,0.00,,,0.00,weatherlink.com 1.10,2013-09-14 07:28:00,
2013-09-14 02:43:00,78.1,69.0,29.89,East,81,0.0,0.0,74,0.00,,,0.00,weatherlink.com 1.10,2013-09-14 07:43:00,
2013-09-14 02:58:00,78.0,69.0,29.89,East,81,0.0,0.0,74,0.00,,,0.00,weatherlink.com 1.10,2013-09-14 07:58:00,
2013-09-14 03:28:00,77.6,70.0,29.89,East,81,0.0,0.0,76,0.00,,,0.00,weatherlink.com 1.10,2013-09-14 08:28:00,
2013-09-14 03:43:00,77.4,69.0,29.89,East,81,0.0,0.0,76,0.00,,,0.00,weatherlink.com 1.10,2013-09-14 08:43:00,
2013-09-14 03:58:00,77.5,69.0,29.89,East,82,0.0,1.0,76,0.00,,,0.00,weatherlink.com 1.10,2013-09-14 08:58:00,
2013-09-14 04:13:00,77.4,69.0,29.89,ENE,78,1.0,2.0,76,0.00,,,0.00,weatherlink.com 1.10,2013-09-14 09:13:00,
2013-09-14 04:28:00,77.3,69.0,29.89,ENE,74,0.0,3.0,76,0.00,,,0.00,weatherlink.com 1.10,2013-09-14 09:28:00,
2013-09-14 04:43:00,77.0,69.0,29.90,ESE,110,1.0,2.0,75,0.00,,,0.00,weatherlink.com 1.10,2013-09-14 09:43:00,
2013-09-14 04:58:00,76.8,68.0,29.90,ESE,110,0.0,2.0,75,0.00,,,0.00,weatherlink.com 1.10,2013-09-14 09:58:00,
2013-09-14 05:13:00,76.5,68.0,29.90,NE,49,1.0,3.0,74,0.00,,,0.00,weatherlink.com 1.10,2013-09-14 10:13:00,
2013-09-14 05:28:00,76.2,67.0,29.90,NE,49,0.0,1.0,72,0.00,,,0.00,weatherlink.com 1.10,2013-09-14 10:28:00,
2013-09-14 05:43:00,75.9,65.0,29.91,WNW,286,0.0,2.0,70,0.00,,,0.00,weatherlink.com 1.10,2013-09-14 10:43:00,
2013-09-14 05:58:00,75.6,65.0,29.91,ESE,103,0.0,4.0,69,0.00,,,0.00,weatherlink.com 1.10,2013-09-14 10:58:00,
2013-09-14 06:13:00,75.3,64.0,29.91,ESE,103,0.0,1.0,68,0.00,,,0.00,weatherlink.com 1.10,2013-09-14 11:13:00,
2013-09-14 06:28:00,74.9,65.0,29.92,SE,132,0.0,2.0,70,0.00,,,0.00,weatherlink.com 1.10,2013-09-14 11:28:00,
2013-09-14 06:43:00,74.5,64.0,29.92,ENE,71,0.0,0.0,70,0.00,,,0.00,weatherlink.com 1.10,2013-09-14 11:43:00,
2013-09-14 06:58:00,74.0,63.0,29.93,ENE,71,0.0,0.0,69,0.00,,,0.00,weatherlink.com 1.10,2013-09-14 11:58:00,
2013-09-14 07:13:00,73.7,63.0,29.93,ENE,71,0.0,1.0,70,0.00,,,0.00,weatherlink.com 1.10,2013-09-14 12:13:00,
2013-09-14 07:28:00,73.4,63.0,29.93,ENE,71,0.0,0.0,70,0.00,,,0.00,weatherlink.com 1.10,2013-09-14 12:28:00,
2013-09-14 07:43:00,73.5,63.0,29.94,NNE,20,1.0,1.0,69,0.00,,,0.00,weatherlink.com 1.10,2013-09-14 12:43:00,
2013-09-14 07:58:00,74.0,63.0,29.95,NNE,19,0.0,2.0,69,0.00,,,0.00,weatherlink.com 1.10,2013-09-14 12:58:00,
2013-09-14 08:13:00,74.4,63.0,29.94,East,99,0.0,1.0,67,0.00,,,0.00,weatherlink.com 1.10,2013-09-14 13:13:00,
2013-09-14 08:28:00,74.9,63.0,29.95,ENE,59,0.0,2.0,67,0.00,,,0.00,weatherlink.com 1.10,2013-09-14 13:28:00,
2013-09-14 08:43:00,75.4,62.0,29.95,NNE,21,0.0,3.0,64,0.00,,,0.00,weatherlink.com 1.10,2013-09-14 13:43:00,
2013-09-14 08:58:00,75.8,63.0,29.95,West,259,0.0,2.0,64,0.00,,,0.00,weatherlink.com 1.10,2013-09-14 13:58:00,
2013-09-14 09:13:00,76.7,62.0,29.95,WNW,294,2.0,3.0,60,0.00,,,0.00,weatherlink.com 1.10,2013-09-14 14:13:00,
2013-09-14 09:29:00,78.3,62.0,29.95,ESE,115,0.0,3.0,57,0.00,,,0.00,weatherlink.com 1.10,2013-09-14 14:29:00,
2013-09-14 09:44:00,80.5,62.0,29.95,NW,318,0.0,7.0,54,0.00,,,0.00,weatherlink.com 1.10,2013-09-14 14:44:00,
2013-09-14 09:59:00,81.2,62.0,29.96,SE,134,0.0,3.0,53,0.00,,,0.00,weatherlink.com 1.10,2013-09-14 14:59:00,
2013-09-14 10:14:00,82.9,63.0,29.97,East,84,0.0,3.0,51,0.00,,,0.00,weatherlink.com 1.10,2013-09-14 15:14:00,
2013-09-14 10:29:00,83.0,63.0,29.96,SE,130,0.0,4.0,51,0.00,,,0.00,weatherlink.com 1.10,2013-09-14 15:29:00,
2013-09-14 10:44:00,83.8,64.0,29.96,East,96,0.0,2.0,51,0.00,,,0.00,weatherlink.com 1.10,2013-09-14 15:44:00,
2013-09-14 10:59:00,84.1,63.0,29.96,NE,55,1.0,4.0,50,0.00,,,0.00,weatherlink.com 1.10,2013-09-14 15:59:00,
2013-09-14 11:14:00,85.5,64.0,29.97,WNW,303,0.0,4.0,48,0.00,,,0.00,weatherlink.com 1.10,2013-09-14 16:14:00,
2013-09-14 11:29:00,86.3,65.0,29.96,East,101,3.0,5.0,49,0.00,,,0.00,weatherlink.com 1.10,2013-09-14 16:29:00,
2013-09-14 11:44:00,87.8,66.0,29.96,WNW,290,0.0,3.0,48,0.00,,,0.00,weatherlink.com 1.10,2013-09-14 16:44:00,
2013-09-14 11:59:00,89.1,65.0,29.96,East,90,2.0,6.0,45,0.00,,,0.00,weatherlink.com 1.10,2013-09-14 16:59:00,
2013-09-14 12:14:00,88.6,66.0,29.95,WNW,284,0.0,6.0,48,0.00,,,0.00,weatherlink.com 1.10,2013-09-14 17:14:00,
2013-09-14 12:29:00,90.0,67.0,29.95,ESE,107,1.0,4.0,46,0.00,,,0.00,weatherlink.com 1.10,2013-09-14 17:29:00,
2013-09-14 12:44:00,90.0,67.0,29.95,WSW,239,1.0,6.0,46,0.00,,,0.00,weatherlink.com 1.10,2013-09-14 17:44:00,
2013-09-14 12:59:00,90.5,66.0,29.95,East,89,0.0,5.0,44,0.00,,,0.00,weatherlink.com 1.10,2013-09-14 17:59:00,
2013-09-14 13:14:00,91.3,68.0,29.93,SSE,148,3.0,7.0,46,0.00,,,0.00,weatherlink.com 1.10,2013-09-14 18:14:00,
2013-09-14 13:29:00,91.7,67.0,29.93,NE,54,2.0,4.0,44,0.00,,,0.00,weatherlink.com 1.10,2013-09-14 18:29:00,
2013-09-14 13:44:00,91.6,66.0,29.92,NW,321,2.0,5.0,43,0.00,,,0.00,weatherlink.com 1.10,2013-09-14 18:44:00,
2013-09-14 13:59:00,93.5,66.0,29.91,West,271,0.0,5.0,41,0.00,,,0.00,weatherlink.com 1.10,2013-09-14 18:59:00,
2013-09-14 14:14:00,94.7,67.0,29.91,NW,320,0.0,5.0,40,0.00,,,0.00,weatherlink.com 1.10,2013-09-14 19:14:00,
2013-09-14 14:29:00,95.3,68.0,29.90,WNW,300,1.0,6.0,41,0.00,,,0.00,weatherlink.com 1.10,2013-09-14 19:29:00,
2013-09-14 14:44:00,94.3,67.0,29.89,ENE,69,2.0,6.0,40,0.00,,,0.00,weatherlink.com 1.10,2013-09-14 19:44:00,
2013-09-14 14:59:00,96.1,67.0,29.89,SSE,149,4.0,6.0,39,0.00,,,0.00,weatherlink.com 1.10,2013-09-14 19:59:00,
2013-09-14 15:14:00,96.1,67.0,29.88,SSE,157,5.0,7.0,38,0.00,,,0.00,weatherlink.com 1.10,2013-09-14 20:14:00,
2013-09-14 15:29:00,95.2,67.0,29.88,NW,320,2.0,6.0,39,0.00,,,0.00,weatherlink.com 1.10,2013-09-14 20:29:00,
2013-09-14 15:44:00,94.7,66.0,29.87,NE,50,1.0,8.0,39,0.00,,,0.00,weatherlink.com 1.10,2013-09-14 20:44:00,
2013-09-14 15:59:00,95.6,65.0,29.87,NE,44,0.0,5.0,37,0.00,,,0.00,weatherlink.com 1.10,2013-09-14 20:59:00,
2013-09-14 16:14:00,95.0,67.0,29.86,East,88,2.0,3.0,40,0.00,,,0.00,weatherlink.com 1.10,2013-09-14 21:14:00,
2013-09-14 16:29:00,94.3,65.0,29.86,NNE,31,3.0,7.0,38,0.00,,,0.00,weatherlink.com 1.10,2013-09-14 21:29:00,
2013-09-14 16:44:00,93.9,65.0,29.86,NW,319,0.0,4.0,39,0.00,,,0.00,weatherlink.com 1.10,2013-09-14 21:44:00,
2013-09-14 16:59:00,94.4,66.0,29.86,SSE,161,0.0,4.0,39,0.00,,,0.00,weatherlink.com 1.10,2013-09-14 21:59:00,
2013-09-14 17:14:00,92.6,66.0,29.86,SE,142,0.0,2.0,41,0.00,,,0.00,weatherlink.com 1.10,2013-09-14 22:14:00,
2013-09-14 17:29:00,91.9,66.0,29.86,ENE,77,1.0,4.0,42,0.00,,,0.00,weatherlink.com 1.10,2013-09-14 22:29:00,
2013-09-14 17:44:00,91.9,66.0,29.86,NE,49,1.0,7.0,42,0.00,,,0.00,weatherlink.com 1.10,2013-09-14 22:44:00,
2013-09-14 17:59:00,91.6,65.0,29.86,NNE,13,0.0,3.0,41,0.00,,,0.00,weatherlink.com 1.10,2013-09-14 22:59:00,
2013-09-14 18:14:00,91.8,65.0,29.86,East,101,2.0,4.0,41,0.00,,,0.00,weatherlink.com 1.10,2013-09-14 23:14:00,
2013-09-14 18:29:00,91.0,65.0,29.87,ESE,109,0.0,8.0,42,0.00,,,0.00,weatherlink.com 1.10,2013-09-14 23:29:00,
2013-09-14 18:44:00,90.1,65.0,29.87,ESE,114,0.0,2.0,44,0.00,,,0.00,weatherlink.com 1.10,2013-09-14 23:44:00,
2013-09-14 18:59:00,89.2,66.0,29.88,ESE,105,0.0,1.0,46,0.00,,,0.00,weatherlink.com 1.10,2013-09-14 23:59:00,
2013-09-14 19:14:00,88.7,65.0,29.88,ESE,105,0.0,0.0,46,0.00,,,0.00,weatherlink.com 1.10,2013-09-15 00:14:00,
2013-09-14 19:29:00,88.1,65.0,29.89,East,100,0.0,1.0,46,0.00,,,0.00,weatherlink.com 1.10,2013-09-15 00:29:00,
2013-09-14 19:44:00,87.3,65.0,29.89,East,100,0.0,0.0,47,0.00,,,0.00,weatherlink.com 1.10,2013-09-15 00:44:00,
2013-09-14 19:59:00,86.3,65.0,29.90,East,100,0.0,0.0,49,0.00,,,0.00,weatherlink.com 1.10,2013-09-15 00:59:00,
2013-09-14 20:14:00,85.4,65.0,29.90,East,100,0.0,0.0,51,0.00,,,0.00,weatherlink.com 1.10,2013-09-15 01:14:00,
2013-09-14 20:29:00,84.5,65.0,29.91,East,100,0.0,1.0,53,0.00,,,0.00,weatherlink.com 1.10,2013-09-15 01:29:00,
2013-09-14 20:44:00,84.0,65.0,29.91,East,97,0.0,2.0,53,0.00,,,0.00,weatherlink.com 1.10,2013-09-15 01:44:00,
2013-09-14 21:00:00,83.6,65.0,29.92,East,97,0.0,0.0,53,0.00,,,0.00,weatherlink.com 1.10,2013-09-15 02:00:00,
2013-09-14 21:15:00,83.2,65.0,29.93,East,97,0.0,0.0,54,0.00,,,0.00,weatherlink.com 1.10,2013-09-15 02:15:00,
2013-09-14 21:30:00,82.9,65.0,29.93,East,97,0.0,0.0,55,0.00,,,0.00,weatherlink.com 1.10,2013-09-15 02:30:00,
2013-09-14 21:45:00,82.4,65.0,29.93,East,97,0.0,1.0,56,0.00,,,0.00,weatherlink.com 1.10,2013-09-15 02:45:00,
2013-09-14 22:00:00,82.1,65.0,29.94,East,97,0.0,1.0,56,0.00,,,0.00,weatherlink.com 1.10,2013-09-15 03:00:00,
2013-09-14 22:15:00,82.0,65.0,29.95,East,97,0.0,1.0,56,0.00,,,0.00,weatherlink.com 1.10,2013-09-15 03:15:00,
2013-09-14 22:30:00,82.0,65.0,29.95,East,97,0.0,0.0,56,0.00,,,0.00,weatherlink.com 1.10,2013-09-15 03:30:00,
2013-09-14 22:45:00,82.3,64.0,29.95,East,101,0.0,1.0,54,0.00,,,0.00,weatherlink.com 1.10,2013-09-15 03:45:00,
2013-09-14 23:01:00,82.3,64.0,29.95,SE,134,0.0,2.0,54,0.00,,,0.00,weatherlink.com 1.10,2013-09-15 04:01:00,
2013-09-14 23:15:00,81.9,64.0,29.95,SE,133,0.0,0.0,55,0.00,,,0.00,weatherlink.com 1.10,2013-09-15 04:15:00,
2013-09-14 23:30:00,81.2,64.0,29.95,SE,133,0.0,0.0,57,0.00,,,0.00,weatherlink.com 1.10,2013-09-15 04:30:00,
2013-09-14 23:45:00,80.6,64.0,29.95,SE,133,0.0,0.0,58,0.00,,,0.00,weatherlink.com 1.10,2013-09-15 04:45:00,